sensor_id;sensor_type;location;lat;lon;timestamp;P1;durP1;ratioP1;P2;durP2;ratioP2
80778;SDS011;70170;47.856;10.956;2024-02-04T00:00:52;11.02;;;2.63;;
80778;SDS011;70170;47.856;10.956;2024-02-04T00:03:17;3.28;;;2.53;;
80778;SDS011;70170;47.856;10.956;2024-02-04T00:05:44;2.67;;;2.03;;
80778;SDS011;70170;47.856;10.956;2024-02-04T00:08:09;2.38;;;2.03;;
80778;SDS011;70170;47.856;10.956;2024-02-04T00:10:35;2.95;;;2.47;;
80778;SDS011;70170;47.856;10.956;2024-02-04T00:13:00;3.65;;;2.70;;
80778;SDS011;70170;47.856;10.956;2024-02-04T00:15:26;3.35;;;2.72;;
80778;SDS011;70170;47.856;10.956;2024-02-04T00:17:51;4.95;;;2.70;;
80778;SDS011;70170;47.856;10.956;2024-02-04T00:20:16;4.78;;;3.08;;
80778;SDS011;70170;47.856;10.956;2024-02-04T00:22:42;3.88;;;2.83;;
80778;SDS011;70170;47.856;10.956;2024-02-04T00:25:07;4.50;;;3.08;;
80778;SDS011;70170;47.856;10.956;2024-02-04T00:27:37;2.95;;;2.55;;
80778;SDS011;70170;47.856;10.956;2024-02-04T00:30:03;3.35;;;2.58;;
80778;SDS011;70170;47.856;10.956;2024-02-04T00:32:29;4.10;;;2.83;;
80778;SDS011;70170;47.856;10.956;2024-02-04T00:34:54;3.25;;;2.80;;
80778;SDS011;70170;47.856;10.956;2024-02-04T00:37:20;2.72;;;2.35;;
80778;SDS011;70170;47.856;10.956;2024-02-04T00:39:45;5.15;;;3.35;;
80778;SDS011;70170;47.856;10.956;2024-02-04T00:42:10;2.75;;;2.55;;
80778;SDS011;70170;47.856;10.956;2024-02-04T00:44:36;3.25;;;2.90;;
80778;SDS011;70170;47.856;10.956;2024-02-04T00:47:02;3.55;;;2.20;;
80778;SDS011;70170;47.856;10.956;2024-02-04T00:49:28;5.47;;;3.10;;
80778;SDS011;70170;47.856;10.956;2024-02-04T00:51:53;3.38;;;2.28;;
80778;SDS011;70170;47.856;10.956;2024-02-04T00:54:18;2.95;;;2.10;;
80778;SDS011;70170;47.856;10.956;2024-02-04T00:56:44;6.20;;;2.83;;
80778;SDS011;70170;47.856;10.956;2024-02-04T00:59:09;2.70;;;2.30;;
80778;SDS011;70170;47.856;10.956;2024-02-04T01:01:35;3.38;;;2.28;;
80778;SDS011;70170;47.856;10.956;2024-02-04T01:04:00;3.70;;;2.40;;
80778;SDS011;70170;47.856;10.956;2024-02-04T01:06:25;3.38;;;2.13;;
80778;SDS011;70170;47.856;10.956;2024-02-04T01:08:51;3.15;;;2.53;;
80778;SDS011;70170;47.856;10.956;2024-02-04T01:11:16;3.97;;;2.47;;
80778;SDS011;70170;47.856;10.956;2024-02-04T01:13:41;3.38;;;2.50;;
80778;SDS011;70170;47.856;10.956;2024-02-04T01:16:07;3.75;;;2.63;;
80778;SDS011;70170;47.856;10.956;2024-02-04T01:18:32;3.47;;;2.78;;
80778;SDS011;70170;47.856;10.956;2024-02-04T01:20:58;5.55;;;2.95;;
80778;SDS011;70170;47.856;10.956;2024-02-04T01:23:25;3.65;;;2.75;;
80778;SDS011;70170;47.856;10.956;2024-02-04T01:25:50;5.40;;;3.25;;
80778;SDS011;70170;47.856;10.956;2024-02-04T01:28:16;4.55;;;3.05;;
80778;SDS011;70170;47.856;10.956;2024-02-04T01:30:41;4.20;;;2.92;;
80778;SDS011;70170;47.856;10.956;2024-02-04T01:33:06;5.45;;;3.03;;
80778;SDS011;70170;47.856;10.956;2024-02-04T01:35:32;4.88;;;3.53;;
80778;SDS011;70170;47.856;10.956;2024-02-04T01:37:57;3.55;;;2.85;;
80778;SDS011;70170;47.856;10.956;2024-02-04T01:40:22;3.95;;;3.10;;
80778;SDS011;70170;47.856;10.956;2024-02-04T01:42:48;3.78;;;3.10;;
80778;SDS011;70170;47.856;10.956;2024-02-04T01:45:13;4.50;;;3.38;;
80778;SDS011;70170;47.856;10.956;2024-02-04T01:47:39;3.50;;;2.88;;
80778;SDS011;70170;47.856;10.956;2024-02-04T01:50:04;5.50;;;3.20;;
80778;SDS011;70170;47.856;10.956;2024-02-04T01:52:34;4.72;;;3.72;;
80778;SDS011;70170;47.856;10.956;2024-02-04T01:55:02;3.30;;;3.00;;
80778;SDS011;70170;47.856;10.956;2024-02-04T01:57:30;8.30;;;3.22;;
80778;SDS011;70170;47.856;10.956;2024-02-04T01:59:55;3.60;;;3.05;;
80778;SDS011;70170;47.856;10.956;2024-02-04T02:02:22;5.03;;;3.92;;
80778;SDS011;70170;47.856;10.956;2024-02-04T02:04:48;4.55;;;3.38;;
80778;SDS011;70170;47.856;10.956;2024-02-04T02:07:14;4.55;;;3.45;;
80778;SDS011;70170;47.856;10.956;2024-02-04T02:09:45;5.28;;;3.50;;
80778;SDS011;70170;47.856;10.956;2024-02-04T02:12:11;4.68;;;3.40;;
80778;SDS011;70170;47.856;10.956;2024-02-04T02:14:41;5.78;;;3.42;;
80778;SDS011;70170;47.856;10.956;2024-02-04T02:17:12;3.75;;;3.25;;
80778;SDS011;70170;47.856;10.956;2024-02-04T02:22:28;5.82;;;3.67;;
80778;SDS011;70170;47.856;10.956;2024-02-04T02:24:57;5.15;;;3.30;;
80778;SDS011;70170;47.856;10.956;2024-02-04T02:27:24;5.63;;;3.80;;
80778;SDS011;70170;47.856;10.956;2024-02-04T02:29:49;14.02;;;3.20;;
80778;SDS011;70170;47.856;10.956;2024-02-04T02:32:15;5.95;;;3.60;;
80778;SDS011;70170;47.856;10.956;2024-02-04T02:34:40;5.03;;;3.55;;
80778;SDS011;70170;47.856;10.956;2024-02-04T02:39:55;5.47;;;3.33;;
80778;SDS011;70170;47.856;10.956;2024-02-04T02:42:28;4.25;;;3.25;;
80778;SDS011;70170;47.856;10.956;2024-02-04T02:44:55;4.60;;;3.75;;
80778;SDS011;70170;47.856;10.956;2024-02-04T02:47:22;5.95;;;3.90;;
80778;SDS011;70170;47.856;10.956;2024-02-04T02:49:50;3.85;;;3.08;;
80778;SDS011;70170;47.856;10.956;2024-02-04T02:52:16;5.93;;;3.75;;
80778;SDS011;70170;47.856;10.956;2024-02-04T02:54:47;5.88;;;3.67;;
80778;SDS011;70170;47.856;10.956;2024-02-04T02:57:13;8.27;;;4.13;;
80778;SDS011;70170;47.856;10.956;2024-02-04T02:59:38;8.68;;;4.20;;
80778;SDS011;70170;47.856;10.956;2024-02-04T03:02:03;3.92;;;3.47;;
80778;SDS011;70170;47.856;10.956;2024-02-04T03:04:29;6.57;;;4.40;;
80778;SDS011;70170;47.856;10.956;2024-02-04T03:06:54;4.38;;;3.40;;
80778;SDS011;70170;47.856;10.956;2024-02-04T03:09:19;3.78;;;2.85;;
80778;SDS011;70170;47.856;10.956;2024-02-04T03:11:48;7.10;;;3.60;;
80778;SDS011;70170;47.856;10.956;2024-02-04T03:14:16;5.65;;;3.15;;
80778;SDS011;70170;47.856;10.956;2024-02-04T03:16:45;4.13;;;3.22;;
80778;SDS011;70170;47.856;10.956;2024-02-04T03:19:10;6.10;;;3.80;;
80778;SDS011;70170;47.856;10.956;2024-02-04T03:21:36;6.97;;;3.40;;
80778;SDS011;70170;47.856;10.956;2024-02-04T03:24:01;5.13;;;3.38;;
80778;SDS011;70170;47.856;10.956;2024-02-04T03:26:26;4.70;;;3.72;;
80778;SDS011;70170;47.856;10.956;2024-02-04T03:28:52;5.75;;;3.75;;
80778;SDS011;70170;47.856;10.956;2024-02-04T03:31:20;4.43;;;3.67;;
80778;SDS011;70170;47.856;10.956;2024-02-04T03:33:46;5.80;;;3.13;;
80778;SDS011;70170;47.856;10.956;2024-02-04T03:36:11;6.38;;;3.42;;
80778;SDS011;70170;47.856;10.956;2024-02-04T03:38:37;5.30;;;3.53;;
80778;SDS011;70170;47.856;10.956;2024-02-04T03:41:02;4.85;;;3.45;;
80778;SDS011;70170;47.856;10.956;2024-02-04T03:43:27;5.47;;;3.28;;
80778;SDS011;70170;47.856;10.956;2024-02-04T03:45:52;5.20;;;3.88;;
80778;SDS011;70170;47.856;10.956;2024-02-04T03:48:18;5.18;;;4.18;;
80778;SDS011;70170;47.856;10.956;2024-02-04T03:50:43;5.03;;;3.83;;
80778;SDS011;70170;47.856;10.956;2024-02-04T03:53:09;7.32;;;3.30;;
80778;SDS011;70170;47.856;10.956;2024-02-04T03:55:35;5.63;;;3.83;;
80778;SDS011;70170;47.856;10.956;2024-02-04T03:58:00;6.45;;;4.07;;
80778;SDS011;70170;47.856;10.956;2024-02-04T04:00:25;5.93;;;4.20;;
80778;SDS011;70170;47.856;10.956;2024-02-04T04:02:51;4.32;;;3.63;;
80778;SDS011;70170;47.856;10.956;2024-02-04T04:05:16;4.75;;;3.88;;
80778;SDS011;70170;47.856;10.956;2024-02-04T04:07:41;6.20;;;4.28;;
80778;SDS011;70170;47.856;10.956;2024-02-04T04:10:07;6.55;;;3.85;;
80778;SDS011;70170;47.856;10.956;2024-02-04T04:12:32;4.43;;;3.45;;
80778;SDS011;70170;47.856;10.956;2024-02-04T04:14:57;8.05;;;3.53;;
80778;SDS011;70170;47.856;10.956;2024-02-04T04:17:23;6.03;;;3.70;;
80778;SDS011;70170;47.856;10.956;2024-02-04T04:19:48;7.60;;;4.45;;
80778;SDS011;70170;47.856;10.956;2024-02-04T04:22:14;8.20;;;3.70;;
80778;SDS011;70170;47.856;10.956;2024-02-04T04:24:39;4.40;;;3.38;;
80778;SDS011;70170;47.856;10.956;2024-02-04T04:27:04;5.65;;;4.45;;
80778;SDS011;70170;47.856;10.956;2024-02-04T04:29:30;6.80;;;4.63;;
80778;SDS011;70170;47.856;10.956;2024-02-04T04:31:55;6.45;;;4.90;;
80778;SDS011;70170;47.856;10.956;2024-02-04T04:34:20;4.85;;;3.70;;
80778;SDS011;70170;47.856;10.956;2024-02-04T04:36:46;6.57;;;4.72;;
80778;SDS011;70170;47.856;10.956;2024-02-04T04:39:11;5.68;;;4.00;;
80778;SDS011;70170;47.856;10.956;2024-02-04T04:41:37;4.82;;;3.97;;
80778;SDS011;70170;47.856;10.956;2024-02-04T04:44:02;5.70;;;4.30;;
80778;SDS011;70170;47.856;10.956;2024-02-04T04:46:27;5.57;;;4.05;;
80778;SDS011;70170;47.856;10.956;2024-02-04T04:48:53;6.28;;;4.25;;
80778;SDS011;70170;47.856;10.956;2024-02-04T04:51:22;6.38;;;4.18;;
80778;SDS011;70170;47.856;10.956;2024-02-04T04:53:50;4.75;;;4.20;;
80778;SDS011;70170;47.856;10.956;2024-02-04T04:56:15;10.65;;;4.78;;
80778;SDS011;70170;47.856;10.956;2024-02-04T04:58:41;9.10;;;4.38;;
80778;SDS011;70170;47.856;10.956;2024-02-04T05:01:06;6.20;;;4.38;;
80778;SDS011;70170;47.856;10.956;2024-02-04T05:03:31;8.95;;;3.83;;
80778;SDS011;70170;47.856;10.956;2024-02-04T05:05:57;8.32;;;4.32;;
80778;SDS011;70170;47.856;10.956;2024-02-04T05:08:23;6.28;;;4.05;;
80778;SDS011;70170;47.856;10.956;2024-02-04T05:10:48;4.78;;;3.92;;
80778;SDS011;70170;47.856;10.956;2024-02-04T05:13:13;10.13;;;5.13;;
80778;SDS011;70170;47.856;10.956;2024-02-04T05:15:39;8.88;;;4.10;;
80778;SDS011;70170;47.856;10.956;2024-02-04T05:18:04;6.65;;;3.95;;
80778;SDS011;70170;47.856;10.956;2024-02-04T05:20:29;6.97;;;4.10;;
80778;SDS011;70170;47.856;10.956;2024-02-04T05:22:56;5.10;;;3.67;;
80778;SDS011;70170;47.856;10.956;2024-02-04T05:25:22;7.43;;;4.45;;
80778;SDS011;70170;47.856;10.956;2024-02-04T05:27:48;6.03;;;3.78;;
80778;SDS011;70170;47.856;10.956;2024-02-04T05:30:13;7.63;;;4.13;;
80778;SDS011;70170;47.856;10.956;2024-02-04T05:32:39;8.20;;;3.90;;
80778;SDS011;70170;47.856;10.956;2024-02-04T05:35:04;6.18;;;3.95;;
80778;SDS011;70170;47.856;10.956;2024-02-04T05:37:32;9.52;;;4.45;;
80778;SDS011;70170;47.856;10.956;2024-02-04T05:39:58;4.88;;;3.65;;
80778;SDS011;70170;47.856;10.956;2024-02-04T05:42:23;6.53;;;3.63;;
80778;SDS011;70170;47.856;10.956;2024-02-04T05:44:49;5.63;;;3.28;;
80778;SDS011;70170;47.856;10.956;2024-02-04T05:47:14;10.55;;;3.70;;
80778;SDS011;70170;47.856;10.956;2024-02-04T05:49:40;9.30;;;4.20;;
80778;SDS011;70170;47.856;10.956;2024-02-04T05:52:05;18.25;;;3.83;;
80778;SDS011;70170;47.856;10.956;2024-02-04T05:54:31;7.82;;;3.65;;
80778;SDS011;70170;47.856;10.956;2024-02-04T05:56:56;5.03;;;3.17;;
80778;SDS011;70170;47.856;10.956;2024-02-04T05:59:22;10.73;;;3.25;;
80778;SDS011;70170;47.856;10.956;2024-02-04T06:01:47;6.28;;;3.03;;
80778;SDS011;70170;47.856;10.956;2024-02-04T06:04:12;8.32;;;3.15;;
80778;SDS011;70170;47.856;10.956;2024-02-04T06:06:38;5.57;;;2.55;;
80778;SDS011;70170;47.856;10.956;2024-02-04T06:09:03;7.70;;;3.10;;
80778;SDS011;70170;47.856;10.956;2024-02-04T06:11:29;11.80;;;3.33;;
80778;SDS011;70170;47.856;10.956;2024-02-04T06:13:54;4.68;;;2.97;;
80778;SDS011;70170;47.856;10.956;2024-02-04T06:16:19;6.45;;;3.17;;
80778;SDS011;70170;47.856;10.956;2024-02-04T06:18:45;6.88;;;2.85;;
80778;SDS011;70170;47.856;10.956;2024-02-04T06:21:10;14.88;;;3.03;;
80778;SDS011;70170;47.856;10.956;2024-02-04T06:23:37;10.55;;;3.47;;
80778;SDS011;70170;47.856;10.956;2024-02-04T06:26:04;13.82;;;3.20;;
80778;SDS011;70170;47.856;10.956;2024-02-04T06:28:29;6.45;;;3.17;;
80778;SDS011;70170;47.856;10.956;2024-02-04T06:30:55;9.52;;;4.55;;
80778;SDS011;70170;47.856;10.956;2024-02-04T06:33:21;9.10;;;3.35;;
80778;SDS011;70170;47.856;10.956;2024-02-04T06:35:48;20.45;;;2.78;;
80778;SDS011;70170;47.856;10.956;2024-02-04T06:38:13;8.95;;;2.78;;
80778;SDS011;70170;47.856;10.956;2024-02-04T06:40:39;12.73;;;3.03;;
80778;SDS011;70170;47.856;10.956;2024-02-04T06:43:04;9.52;;;2.92;;
80778;SDS011;70170;47.856;10.956;2024-02-04T06:45:29;12.90;;;3.63;;
80778;SDS011;70170;47.856;10.956;2024-02-04T06:47:55;4.55;;;2.45;;
80778;SDS011;70170;47.856;10.956;2024-02-04T06:50:20;3.42;;;2.30;;
80778;SDS011;70170;47.856;10.956;2024-02-04T06:52:46;7.15;;;2.45;;
80778;SDS011;70170;47.856;10.956;2024-02-04T06:55:11;5.53;;;2.80;;
80778;SDS011;70170;47.856;10.956;2024-02-04T06:57:37;12.35;;;2.55;;
80778;SDS011;70170;47.856;10.956;2024-02-04T07:00:03;9.57;;;2.53;;
80778;SDS011;70170;47.856;10.956;2024-02-04T07:02:30;14.43;;;3.40;;
80778;SDS011;70170;47.856;10.956;2024-02-04T07:04:56;8.68;;;2.08;;
80778;SDS011;70170;47.856;10.956;2024-02-04T07:07:22;18.38;;;2.97;;
80778;SDS011;70170;47.856;10.956;2024-02-04T07:09:47;15.75;;;2.60;;
80778;SDS011;70170;47.856;10.956;2024-02-04T07:12:12;8.65;;;2.20;;
80778;SDS011;70170;47.856;10.956;2024-02-04T07:14:38;8.38;;;2.13;;
80778;SDS011;70170;47.856;10.956;2024-02-04T07:17:03;10.90;;;2.10;;
80778;SDS011;70170;47.856;10.956;2024-02-04T07:19:28;6.05;;;2.30;;
80778;SDS011;70170;47.856;10.956;2024-02-04T07:21:54;6.13;;;1.90;;
80778;SDS011;70170;47.856;10.956;2024-02-04T07:24:19;4.53;;;1.77;;
80778;SDS011;70170;47.856;10.956;2024-02-04T07:26:46;17.27;;;3.35;;
80778;SDS011;70170;47.856;10.956;2024-02-04T07:29:14;10.50;;;2.60;;
80778;SDS011;70170;47.856;10.956;2024-02-04T07:31:40;5.03;;;1.75;;
80778;SDS011;70170;47.856;10.956;2024-02-04T07:34:05;3.45;;;1.40;;
80778;SDS011;70170;47.856;10.956;2024-02-04T07:36:31;5.47;;;1.80;;
80778;SDS011;70170;47.856;10.956;2024-02-04T07:38:56;22.85;;;2.63;;
80778;SDS011;70170;47.856;10.956;2024-02-04T07:41:21;6.25;;;2.78;;
80778;SDS011;70170;47.856;10.956;2024-02-04T07:43:47;5.15;;;2.00;;
80778;SDS011;70170;47.856;10.956;2024-02-04T07:46:13;5.65;;;2.45;;
80778;SDS011;70170;47.856;10.956;2024-02-04T07:48:39;8.20;;;2.10;;
80778;SDS011;70170;47.856;10.956;2024-02-04T07:51:04;6.03;;;2.30;;
80778;SDS011;70170;47.856;10.956;2024-02-04T07:53:30;14.95;;;2.47;;
80778;SDS011;70170;47.856;10.956;2024-02-04T07:55:55;16.90;;;2.55;;
80778;SDS011;70170;47.856;10.956;2024-02-04T07:58:21;6.40;;;1.85;;
80778;SDS011;70170;47.856;10.956;2024-02-04T08:00:46;8.27;;;2.40;;
80778;SDS011;70170;47.856;10.956;2024-02-04T08:03:11;7.35;;;2.20;;
80778;SDS011;70170;47.856;10.956;2024-02-04T08:05:37;4.90;;;2.28;;
80778;SDS011;70170;47.856;10.956;2024-02-04T08:08:02;24.70;;;4.00;;
80778;SDS011;70170;47.856;10.956;2024-02-04T08:10:28;5.65;;;2.25;;
80778;SDS011;70170;47.856;10.956;2024-02-04T08:12:54;8.77;;;1.95;;
80778;SDS011;70170;47.856;10.956;2024-02-04T08:15:19;12.43;;;2.08;;
80778;SDS011;70170;47.856;10.956;2024-02-04T08:17:45;12.95;;;3.05;;
80778;SDS011;70170;47.856;10.956;2024-02-04T08:20:11;9.73;;;2.65;;
80778;SDS011;70170;47.856;10.956;2024-02-04T08:22:37;7.18;;;2.22;;
80778;SDS011;70170;47.856;10.956;2024-02-04T08:25:03;11.45;;;2.47;;
80778;SDS011;70170;47.856;10.956;2024-02-04T08:27:29;3.42;;;1.92;;
80778;SDS011;70170;47.856;10.956;2024-02-04T08:29:54;12.05;;;2.47;;
80778;SDS011;70170;47.856;10.956;2024-02-04T08:32:20;4.60;;;1.77;;
80778;SDS011;70170;47.856;10.956;2024-02-04T08:34:45;5.95;;;1.90;;
80778;SDS011;70170;47.856;10.956;2024-02-04T08:37:11;6.13;;;2.10;;
80778;SDS011;70170;47.856;10.956;2024-02-04T08:39:36;7.40;;;2.25;;
80778;SDS011;70170;47.856;10.956;2024-02-04T08:42:02;3.05;;;1.80;;
80778;SDS011;70170;47.856;10.956;2024-02-04T08:44:27;7.03;;;2.45;;
80778;SDS011;70170;47.856;10.956;2024-02-04T08:46:52;7.72;;;2.05;;
80778;SDS011;70170;47.856;10.956;2024-02-04T08:49:18;8.27;;;2.00;;
80778;SDS011;70170;47.856;10.956;2024-02-04T08:51:43;11.35;;;1.83;;
80778;SDS011;70170;47.856;10.956;2024-02-04T08:54:08;8.35;;;2.40;;
80778;SDS011;70170;47.856;10.956;2024-02-04T08:56:34;11.02;;;2.50;;
80778;SDS011;70170;47.856;10.956;2024-02-04T08:58:59;6.88;;;2.13;;
80778;SDS011;70170;47.856;10.956;2024-02-04T09:01:26;7.30;;;1.77;;
80778;SDS011;70170;47.856;10.956;2024-02-04T09:03:52;6.45;;;1.90;;
80778;SDS011;70170;47.856;10.956;2024-02-04T09:06:18;7.63;;;2.22;;
80778;SDS011;70170;47.856;10.956;2024-02-04T09:08:43;12.55;;;2.33;;
80778;SDS011;70170;47.856;10.956;2024-02-04T09:11:08;10.02;;;2.65;;
80778;SDS011;70170;47.856;10.956;2024-02-04T09:13:34;6.40;;;1.85;;
80778;SDS011;70170;47.856;10.956;2024-02-04T09:15:59;8.80;;;2.33;;
80778;SDS011;70170;47.856;10.956;2024-02-04T09:18:24;15.60;;;3.42;;
80778;SDS011;70170;47.856;10.956;2024-02-04T09:20:50;16.60;;;2.63;;
80778;SDS011;70170;47.856;10.956;2024-02-04T09:23:15;12.05;;;1.73;;
80778;SDS011;70170;47.856;10.956;2024-02-04T09:25:40;11.13;;;2.42;;
80778;SDS011;70170;47.856;10.956;2024-02-04T09:28:06;5.15;;;1.77;;
80778;SDS011;70170;47.856;10.956;2024-02-04T09:30:31;10.55;;;2.53;;
80778;SDS011;70170;47.856;10.956;2024-02-04T09:32:57;4.82;;;1.88;;
80778;SDS011;70170;47.856;10.956;2024-02-04T09:35:22;4.25;;;1.67;;
80778;SDS011;70170;47.856;10.956;2024-02-04T09:37:50;3.10;;;1.50;;
80778;SDS011;70170;47.856;10.956;2024-02-04T09:40:16;17.48;;;2.13;;
80778;SDS011;70170;47.856;10.956;2024-02-04T09:42:42;4.82;;;2.22;;
80778;SDS011;70170;47.856;10.956;2024-02-04T09:45:07;6.50;;;2.25;;
80778;SDS011;70170;47.856;10.956;2024-02-04T09:47:34;7.38;;;1.98;;
80778;SDS011;70170;47.856;10.956;2024-02-04T09:50:02;4.55;;;1.92;;
80778;SDS011;70170;47.856;10.956;2024-02-04T09:52:32;3.97;;;1.60;;
80778;SDS011;70170;47.856;10.956;2024-02-04T09:55:01;7.03;;;1.95;;
80778;SDS011;70170;47.856;10.956;2024-02-04T09:57:29;7.18;;;1.85;;
80778;SDS011;70170;47.856;10.956;2024-02-04T09:59:55;8.13;;;2.47;;
80778;SDS011;70170;47.856;10.956;2024-02-04T10:02:21;7.03;;;1.80;;
80778;SDS011;70170;47.856;10.956;2024-02-04T10:04:47;7.25;;;2.13;;
80778;SDS011;70170;47.856;10.956;2024-02-04T10:07:13;6.60;;;2.10;;
80778;SDS011;70170;47.856;10.956;2024-02-04T10:09:39;10.32;;;2.22;;
80778;SDS011;70170;47.856;10.956;2024-02-04T10:12:05;7.05;;;1.77;;
80778;SDS011;70170;47.856;10.956;2024-02-04T10:14:33;6.43;;;2.70;;
80778;SDS011;70170;47.856;10.956;2024-02-04T10:16:58;4.40;;;2.08;;
80778;SDS011;70170;47.856;10.956;2024-02-04T10:19:24;4.00;;;2.15;;
80778;SDS011;70170;47.856;10.956;2024-02-04T10:21:57;3.30;;;2.10;;
80778;SDS011;70170;47.856;10.956;2024-02-04T10:24:24;10.00;;;2.25;;
80778;SDS011;70170;47.856;10.956;2024-02-04T10:26:50;11.15;;;2.97;;
80778;SDS011;70170;47.856;10.956;2024-02-04T10:29:15;4.35;;;1.95;;
80778;SDS011;70170;47.856;10.956;2024-02-04T10:31:41;6.70;;;1.95;;
80778;SDS011;70170;47.856;10.956;2024-02-04T10:34:06;3.97;;;2.03;;
80778;SDS011;70170;47.856;10.956;2024-02-04T10:36:32;3.85;;;1.75;;
80778;SDS011;70170;47.856;10.956;2024-02-04T10:38:58;6.20;;;1.88;;
80778;SDS011;70170;47.856;10.956;2024-02-04T10:41:23;5.63;;;2.38;;
80778;SDS011;70170;47.856;10.956;2024-02-04T10:43:51;10.57;;;2.50;;
80778;SDS011;70170;47.856;10.956;2024-02-04T10:46:19;11.32;;;1.98;;
80778;SDS011;70170;47.856;10.956;2024-02-04T10:48:51;6.65;;;1.90;;
80778;SDS011;70170;47.856;10.956;2024-02-04T10:51:19;2.47;;;1.63;;
80778;SDS011;70170;47.856;10.956;2024-02-04T10:53:50;15.20;;;2.55;;
80778;SDS011;70170;47.856;10.956;2024-02-04T10:56:21;7.88;;;2.05;;
80778;SDS011;70170;47.856;10.956;2024-02-04T10:58:50;3.72;;;1.83;;
80778;SDS011;70170;47.856;10.956;2024-02-04T11:01:17;10.45;;;2.17;;
80778;SDS011;70170;47.856;10.956;2024-02-04T11:03:43;5.07;;;2.05;;
80778;SDS011;70170;47.856;10.956;2024-02-04T11:06:10;4.15;;;1.80;;
80778;SDS011;70170;47.856;10.956;2024-02-04T11:08:37;8.93;;;2.63;;
80778;SDS011;70170;47.856;10.956;2024-02-04T11:11:03;2.58;;;2.00;;
80778;SDS011;70170;47.856;10.956;2024-02-04T11:13:30;5.47;;;2.45;;
80778;SDS011;70170;47.856;10.956;2024-02-04T11:15:57;9.48;;;2.10;;
80778;SDS011;70170;47.856;10.956;2024-02-04T11:18:50;9.50;;;2.13;;
80778;SDS011;70170;47.856;10.956;2024-02-04T11:27:12;3.50;;;1.83;;
80778;SDS011;70170;47.856;10.956;2024-02-04T11:29:38;7.60;;;1.95;;
80778;SDS011;70170;47.856;10.956;2024-02-04T11:32:05;7.38;;;2.30;;
80778;SDS011;70170;47.856;10.956;2024-02-04T11:34:31;6.75;;;1.80;;
80778;SDS011;70170;47.856;10.956;2024-02-04T11:36:58;6.85;;;2.28;;
80778;SDS011;70170;47.856;10.956;2024-02-04T11:39:23;9.38;;;1.95;;
80778;SDS011;70170;47.856;10.956;2024-02-04T11:41:50;5.53;;;2.00;;
80778;SDS011;70170;47.856;10.956;2024-02-04T11:44:22;3.80;;;2.00;;
80778;SDS011;70170;47.856;10.956;2024-02-04T11:46:48;3.03;;;1.63;;
80778;SDS011;70170;47.856;10.956;2024-02-04T11:49:15;4.70;;;1.80;;
80778;SDS011;70170;47.856;10.956;2024-02-04T11:51:47;6.78;;;1.40;;
80778;SDS011;70170;47.856;10.956;2024-02-04T11:54:16;5.97;;;2.00;;
80778;SDS011;70170;47.856;10.956;2024-02-04T11:56:44;7.70;;;1.77;;
80778;SDS011;70170;47.856;10.956;2024-02-04T11:59:10;6.63;;;2.75;;
80778;SDS011;70170;47.856;10.956;2024-02-04T12:01:36;3.80;;;1.70;;
80778;SDS011;70170;47.856;10.956;2024-02-04T12:04:12;5.38;;;2.45;;
80778;SDS011;70170;47.856;10.956;2024-02-04T12:06:41;6.35;;;1.85;;
80778;SDS011;70170;47.856;10.956;2024-02-04T12:09:10;5.22;;;1.48;;
80778;SDS011;70170;47.856;10.956;2024-02-04T12:11:36;9.63;;;1.75;;
80778;SDS011;70170;47.856;10.956;2024-02-04T12:14:05;1.80;;;1.58;;
80778;SDS011;70170;47.856;10.956;2024-02-04T12:16:32;2.53;;;1.27;;
80778;SDS011;70170;47.856;10.956;2024-02-04T12:19:00;3.60;;;1.48;;
80778;SDS011;70170;47.856;10.956;2024-02-04T12:21:25;4.78;;;1.60;;
80778;SDS011;70170;47.856;10.956;2024-02-04T12:23:51;6.10;;;1.52;;
80778;SDS011;70170;47.856;10.956;2024-02-04T12:26:17;5.25;;;1.65;;
80778;SDS011;70170;47.856;10.956;2024-02-04T12:28:42;6.75;;;2.13;;
80778;SDS011;70170;47.856;10.956;2024-02-04T12:31:15;5.05;;;1.60;;
80778;SDS011;70170;47.856;10.956;2024-02-04T12:33:42;8.77;;;1.77;;
80778;SDS011;70170;47.856;10.956;2024-02-04T12:36:08;9.10;;;1.88;;
80778;SDS011;70170;47.856;10.956;2024-02-04T12:38:34;14.20;;;2.88;;
80778;SDS011;70170;47.856;10.956;2024-02-04T12:41:03;3.85;;;1.50;;
80778;SDS011;70170;47.856;10.956;2024-02-04T12:43:28;7.00;;;1.45;;
80778;SDS011;70170;47.856;10.956;2024-02-04T12:45:56;4.07;;;1.83;;
80778;SDS011;70170;47.856;10.956;2024-02-04T12:48:22;5.20;;;1.80;;
80778;SDS011;70170;47.856;10.956;2024-02-04T12:50:49;5.57;;;1.52;;
80778;SDS011;70170;47.856;10.956;2024-02-04T12:53:15;3.13;;;1.23;;
80778;SDS011;70170;47.856;10.956;2024-02-04T12:55:40;5.95;;;1.67;;
80778;SDS011;70170;47.856;10.956;2024-02-04T12:58:08;2.35;;;1.25;;
80778;SDS011;70170;47.856;10.956;2024-02-04T13:00:37;4.95;;;1.67;;
80778;SDS011;70170;47.856;10.956;2024-02-04T13:03:03;5.65;;;1.48;;
80778;SDS011;70170;47.856;10.956;2024-02-04T13:05:29;3.53;;;1.52;;
80778;SDS011;70170;47.856;10.956;2024-02-04T13:07:58;5.85;;;1.40;;
80778;SDS011;70170;47.856;10.956;2024-02-04T13:10:27;4.95;;;1.10;;
80778;SDS011;70170;47.856;10.956;2024-02-04T13:15:30;4.35;;;1.52;;
80778;SDS011;70170;47.856;10.956;2024-02-04T13:17:57;5.95;;;1.50;;
80778;SDS011;70170;47.856;10.956;2024-02-04T13:20:22;6.72;;;1.85;;
80778;SDS011;70170;47.856;10.956;2024-02-04T13:22:48;6.55;;;1.92;;
80778;SDS011;70170;47.856;10.956;2024-02-04T13:25:14;3.00;;;1.33;;
80778;SDS011;70170;47.856;10.956;2024-02-04T13:27:39;6.45;;;1.40;;
80778;SDS011;70170;47.856;10.956;2024-02-04T13:30:06;1.55;;;1.38;;
80778;SDS011;70170;47.856;10.956;2024-02-04T13:32:36;8.50;;;1.70;;
80778;SDS011;70170;47.856;10.956;2024-02-04T13:35:05;5.80;;;1.58;;
80778;SDS011;70170;47.856;10.956;2024-02-04T13:37:32;4.15;;;1.42;;
80778;SDS011;70170;47.856;10.956;2024-02-04T13:39:57;2.88;;;1.60;;
80778;SDS011;70170;47.856;10.956;2024-02-04T13:42:22;4.43;;;1.90;;
80778;SDS011;70170;47.856;10.956;2024-02-04T13:44:48;6.88;;;1.60;;
80778;SDS011;70170;47.856;10.956;2024-02-04T13:47:14;1.40;;;1.05;;
80778;SDS011;70170;47.856;10.956;2024-02-04T13:49:39;2.25;;;1.10;;
80778;SDS011;70170;47.856;10.956;2024-02-04T13:52:05;9.32;;;1.65;;
80778;SDS011;70170;47.856;10.956;2024-02-04T13:54:30;1.85;;;1.20;;
80778;SDS011;70170;47.856;10.956;2024-02-04T13:56:55;4.53;;;1.48;;
80778;SDS011;70170;47.856;10.956;2024-02-04T13:59:21;5.30;;;1.10;;
80778;SDS011;70170;47.856;10.956;2024-02-04T14:01:46;4.78;;;1.38;;
80778;SDS011;70170;47.856;10.956;2024-02-04T14:04:11;2.83;;;1.02;;
80778;SDS011;70170;47.856;10.956;2024-02-04T14:06:37;4.97;;;1.50;;
80778;SDS011;70170;47.856;10.956;2024-02-04T14:09:02;7.18;;;1.40;;
80778;SDS011;70170;47.856;10.956;2024-02-04T14:11:28;3.90;;;1.17;;
80778;SDS011;70170;47.856;10.956;2024-02-04T14:13:53;2.67;;;1.55;;
80778;SDS011;70170;47.856;10.956;2024-02-04T14:16:18;3.83;;;1.60;;
80778;SDS011;70170;47.856;10.956;2024-02-04T14:18:44;4.03;;;1.15;;
80778;SDS011;70170;47.856;10.956;2024-02-04T14:21:11;1.48;;;1.20;;
80778;SDS011;70170;47.856;10.956;2024-02-04T14:23:38;2.00;;;1.30;;
80778;SDS011;70170;47.856;10.956;2024-02-04T14:26:04;1.95;;;1.42;;
80778;SDS011;70170;47.856;10.956;2024-02-04T14:28:33;3.80;;;1.00;;
80778;SDS011;70170;47.856;10.956;2024-02-04T14:31:06;3.45;;;1.30;;
80778;SDS011;70170;47.856;10.956;2024-02-04T14:33:31;2.33;;;1.48;;
80778;SDS011;70170;47.856;10.956;2024-02-04T14:35:57;2.70;;;1.20;;
80778;SDS011;70170;47.856;10.956;2024-02-04T14:38:22;4.95;;;1.13;;
80778;SDS011;70170;47.856;10.956;2024-02-04T14:40:47;5.00;;;2.38;;